sensor_id;sensor_type;location;lat;lon;timestamp;P1;durP1;ratioP1;P2;durP2;ratioP2
15595;SDS011;7898;48.658;9.068;2023-08-12T00:01:40;9.10;;;7.80;;
15595;SDS011;7898;48.658;9.068;2023-08-12T00:04:07;8.68;;;7.78;;
15595;SDS011;7898;48.658;9.068;2023-08-12T00:06:34;12.10;;;8.10;;
15595;SDS011;7898;48.658;9.068;2023-08-12T00:09:01;8.93;;;7.70;;
15595;SDS011;7898;48.658;9.068;2023-08-12T00:11:29;10.32;;;7.88;;
15595;SDS011;7898;48.658;9.068;2023-08-12T00:13:55;8.90;;;8.00;;
15595;SDS011;7898;48.658;9.068;2023-08-12T00:16:24;8.45;;;7.63;;
15595;SDS011;7898;48.658;9.068;2023-08-12T00:18:50;8.75;;;7.65;;
15595;SDS011;7898;48.658;9.068;2023-08-12T00:21:17;9.00;;;7.78;;
15595;SDS011;7898;48.658;9.068;2023-08-12T00:23:45;9.85;;;8.25;;
15595;SDS011;7898;48.658;9.068;2023-08-12T00:26:12;11.07;;;8.02;;
15595;SDS011;7898;48.658;9.068;2023-08-12T00:28:39;10.98;;;7.70;;
15595;SDS011;7898;48.658;9.068;2023-08-12T00:31:06;11.52;;;8.15;;
15595;SDS011;7898;48.658;9.068;2023-08-12T00:33:35;11.32;;;7.88;;
15595;SDS011;7898;48.658;9.068;2023-08-12T00:36:02;10.32;;;8.25;;
15595;SDS011;7898;48.658;9.068;2023-08-12T00:38:29;11.95;;;9.00;;
15595;SDS011;7898;48.658;9.068;2023-08-12T00:40:55;9.15;;;8.10;;
15595;SDS011;7898;48.658;9.068;2023-08-12T00:43:23;8.20;;;7.50;;
15595;SDS011;7898;48.658;9.068;2023-08-12T00:45:50;8.93;;;7.78;;
15595;SDS011;7898;48.658;9.068;2023-08-12T00:48:17;10.82;;;8.30;;
15595;SDS011;7898;48.658;9.068;2023-08-12T00:50:45;9.07;;;7.68;;
15595;SDS011;7898;48.658;9.068;2023-08-12T00:53:13;8.35;;;7.53;;
15595;SDS011;7898;48.658;9.068;2023-08-12T00:55:42;10.77;;;8.05;;
15595;SDS011;7898;48.658;9.068;2023-08-12T00:58:09;9.13;;;8.23;;
15595;SDS011;7898;48.658;9.068;2023-08-12T01:00:36;10.30;;;8.27;;
15595;SDS011;7898;48.658;9.068;2023-08-12T01:03:03;9.15;;;8.15;;
15595;SDS011;7898;48.658;9.068;2023-08-12T01:05:32;10.93;;;8.07;;
15595;SDS011;7898;48.658;9.068;2023-08-12T01:08:01;9.32;;;7.45;;
15595;SDS011;7898;48.658;9.068;2023-08-12T01:10:28;9.60;;;7.65;;
15595;SDS011;7898;48.658;9.068;2023-08-12T01:13:04;11.27;;;7.88;;
15595;SDS011;7898;48.658;9.068;2023-08-12T01:15:38;9.23;;;7.70;;
15595;SDS011;7898;48.658;9.068;2023-08-12T01:18:07;8.73;;;7.70;;
15595;SDS011;7898;48.658;9.068;2023-08-12T01:20:34;8.80;;;7.90;;
15595;SDS011;7898;48.658;9.068;2023-08-12T01:23:11;8.85;;;7.63;;
15595;SDS011;7898;48.658;9.068;2023-08-12T01:25:38;13.20;;;7.72;;
15595;SDS011;7898;48.658;9.068;2023-08-12T01:28:05;10.10;;;7.60;;
15595;SDS011;7898;48.658;9.068;2023-08-12T01:30:32;9.80;;;7.93;;
15595;SDS011;7898;48.658;9.068;2023-08-12T01:33:01;10.57;;;8.15;;
15595;SDS011;7898;48.658;9.068;2023-08-12T01:35:35;13.68;;;8.52;;
15595;SDS011;7898;48.658;9.068;2023-08-12T01:38:06;9.48;;;8.10;;
15595;SDS011;7898;48.658;9.068;2023-08-12T01:40:37;9.50;;;8.25;;
15595;SDS011;7898;48.658;9.068;2023-08-12T01:43:05;10.45;;;9.23;;
15595;SDS011;7898;48.658;9.068;2023-08-12T01:45:33;9.68;;;7.93;;
15595;SDS011;7898;48.658;9.068;2023-08-12T01:48:00;14.50;;;8.88;;
15595;SDS011;7898;48.658;9.068;2023-08-12T01:50:28;9.13;;;8.23;;
15595;SDS011;7898;48.658;9.068;2023-08-12T01:52:54;10.75;;;8.38;;
15595;SDS011;7898;48.658;9.068;2023-08-12T01:55:23;10.30;;;8.30;;
15595;SDS011;7898;48.658;9.068;2023-08-12T01:57:51;9.40;;;8.48;;
15595;SDS011;7898;48.658;9.068;2023-08-12T02:00:18;12.68;;;8.95;;
15595;SDS011;7898;48.658;9.068;2023-08-12T02:02:44;9.25;;;8.35;;
15595;SDS011;7898;48.658;9.068;2023-08-12T02:05:12;10.05;;;8.40;;
15595;SDS011;7898;48.658;9.068;2023-08-12T02:07:39;10.30;;;8.45;;
15595;SDS011;7898;48.658;9.068;2023-08-12T02:10:06;10.57;;;8.18;;
15595;SDS011;7898;48.658;9.068;2023-08-12T02:12:33;10.02;;;8.63;;
15595;SDS011;7898;48.658;9.068;2023-08-12T02:15:02;9.38;;;8.23;;
15595;SDS011;7898;48.658;9.068;2023-08-12T02:17:29;10.95;;;8.45;;
15595;SDS011;7898;48.658;9.068;2023-08-12T02:19:55;9.73;;;8.18;;
15595;SDS011;7898;48.658;9.068;2023-08-12T02:22:22;10.80;;;8.60;;
15595;SDS011;7898;48.658;9.068;2023-08-12T02:24:49;10.02;;;8.65;;
15595;SDS011;7898;48.658;9.068;2023-08-12T02:27:16;11.02;;;8.75;;
15595;SDS011;7898;48.658;9.068;2023-08-12T02:29:43;9.02;;;7.85;;
15595;SDS011;7898;48.658;9.068;2023-08-12T02:32:11;9.10;;;8.18;;
15595;SDS011;7898;48.658;9.068;2023-08-12T02:34:38;9.15;;;8.23;;
15595;SDS011;7898;48.658;9.068;2023-08-12T02:37:05;12.30;;;8.45;;
15595;SDS011;7898;48.658;9.068;2023-08-12T02:39:32;12.25;;;8.38;;
15595;SDS011;7898;48.658;9.068;2023-08-12T02:41:59;9.77;;;8.77;;
15595;SDS011;7898;48.658;9.068;2023-08-12T02:44:25;11.90;;;9.38;;
15595;SDS011;7898;48.658;9.068;2023-08-12T02:46:54;8.88;;;8.00;;
15595;SDS011;7898;48.658;9.068;2023-08-12T02:49:22;10.13;;;8.10;;
15595;SDS011;7898;48.658;9.068;2023-08-12T02:51:49;13.35;;;8.70;;
15595;SDS011;7898;48.658;9.068;2023-08-12T02:54:16;11.77;;;8.48;;
15595;SDS011;7898;48.658;9.068;2023-08-12T02:56:43;9.85;;;8.15;;
15595;SDS011;7898;48.658;9.068;2023-08-12T02:59:10;10.18;;;8.32;;
15595;SDS011;7898;48.658;9.068;2023-08-12T03:01:37;9.48;;;8.48;;
15595;SDS011;7898;48.658;9.068;2023-08-12T03:04:04;11.20;;;8.77;;
15595;SDS011;7898;48.658;9.068;2023-08-12T03:06:32;11.57;;;9.13;;
15595;SDS011;7898;48.658;9.068;2023-08-12T03:08:59;10.70;;;8.68;;
15595;SDS011;7898;48.658;9.068;2023-08-12T03:11:26;9.65;;;8.45;;
15595;SDS011;7898;48.658;9.068;2023-08-12T03:13:53;9.90;;;8.43;;
15595;SDS011;7898;48.658;9.068;2023-08-12T03:16:20;10.55;;;9.50;;
15595;SDS011;7898;48.658;9.068;2023-08-12T03:18:47;10.63;;;9.52;;
15595;SDS011;7898;48.658;9.068;2023-08-12T03:21:14;13.85;;;9.30;;
15595;SDS011;7898;48.658;9.068;2023-08-12T03:23:42;11.00;;;8.82;;
15595;SDS011;7898;48.658;9.068;2023-08-12T03:26:09;15.00;;;9.85;;
15595;SDS011;7898;48.658;9.068;2023-08-12T03:28:36;11.27;;;8.88;;
15595;SDS011;7898;48.658;9.068;2023-08-12T03:31:03;9.85;;;8.85;;
15595;SDS011;7898;48.658;9.068;2023-08-12T03:33:29;8.93;;;8.05;;
15595;SDS011;7898;48.658;9.068;2023-08-12T03:35:57;10.45;;;8.93;;
15595;SDS011;7898;48.658;9.068;2023-08-12T03:38:24;11.57;;;9.10;;
15595;SDS011;7898;48.658;9.068;2023-08-12T03:40:52;10.18;;;9.18;;
15595;SDS011;7898;48.658;9.068;2023-08-12T03:43:19;10.27;;;8.85;;
15595;SDS011;7898;48.658;9.068;2023-08-12T03:45:47;11.57;;;9.07;;
15595;SDS011;7898;48.658;9.068;2023-08-12T03:48:14;10.48;;;9.48;;
15595;SDS011;7898;48.658;9.068;2023-08-12T03:50:41;11.18;;;8.95;;
15595;SDS011;7898;48.658;9.068;2023-08-12T03:53:10;13.20;;;8.65;;
15595;SDS011;7898;48.658;9.068;2023-08-12T03:55:37;10.85;;;8.35;;
15595;SDS011;7898;48.658;9.068;2023-08-12T03:58:05;11.57;;;10.32;;
15595;SDS011;7898;48.658;9.068;2023-08-12T04:00:32;12.30;;;9.52;;
15595;SDS011;7898;48.658;9.068;2023-08-12T04:02:59;12.98;;;8.77;;
15595;SDS011;7898;48.658;9.068;2023-08-12T04:05:26;9.98;;;8.90;;
15595;SDS011;7898;48.658;9.068;2023-08-12T04:07:53;9.40;;;8.27;;
15595;SDS011;7898;48.658;9.068;2023-08-12T04:10:20;9.55;;;8.57;;
15595;SDS011;7898;48.658;9.068;2023-08-12T04:12:47;12.55;;;9.20;;
15595;SDS011;7898;48.658;9.068;2023-08-12T04:15:15;9.82;;;8.38;;
15595;SDS011;7898;48.658;9.068;2023-08-12T04:17:42;9.90;;;8.55;;
15595;SDS011;7898;48.658;9.068;2023-08-12T04:20:09;13.15;;;8.50;;
15595;SDS011;7898;48.658;9.068;2023-08-12T04:22:36;9.95;;;8.85;;
15595;SDS011;7898;48.658;9.068;2023-08-12T04:25:03;9.20;;;8.30;;
15595;SDS011;7898;48.658;9.068;2023-08-12T04:27:31;9.82;;;8.20;;
15595;SDS011;7898;48.658;9.068;2023-08-12T04:29:58;9.82;;;7.53;;
15595;SDS011;7898;48.658;9.068;2023-08-12T04:32:26;9.93;;;8.30;;
15595;SDS011;7898;48.658;9.068;2023-08-12T04:34:53;8.60;;;7.80;;
15595;SDS011;7898;48.658;9.068;2023-08-12T04:37:20;9.52;;;8.40;;
15595;SDS011;7898;48.658;9.068;2023-08-12T04:39:48;18.38;;;8.60;;
15595;SDS011;7898;48.658;9.068;2023-08-12T04:42:15;9.60;;;8.60;;
15595;SDS011;7898;48.658;9.068;2023-08-12T04:44:42;11.80;;;8.13;;
15595;SDS011;7898;48.658;9.068;2023-08-12T04:47:09;9.60;;;8.38;;
15595;SDS011;7898;48.658;9.068;2023-08-12T04:49:37;10.55;;;8.43;;
15595;SDS011;7898;48.658;9.068;2023-08-12T04:52:04;9.98;;;8.40;;
15595;SDS011;7898;48.658;9.068;2023-08-12T04:54:32;10.30;;;8.48;;
15595;SDS011;7898;48.658;9.068;2023-08-12T04:56:59;10.50;;;8.45;;
15595;SDS011;7898;48.658;9.068;2023-08-12T04:59:26;12.73;;;8.27;;
15595;SDS011;7898;48.658;9.068;2023-08-12T05:01:53;11.82;;;8.18;;
15595;SDS011;7898;48.658;9.068;2023-08-12T05:04:20;12.98;;;8.90;;
15595;SDS011;7898;48.658;9.068;2023-08-12T05:06:48;11.68;;;9.38;;
15595;SDS011;7898;48.658;9.068;2023-08-12T05:09:15;13.07;;;9.65;;
15595;SDS011;7898;48.658;9.068;2023-08-12T05:11:41;11.80;;;9.95;;
15595;SDS011;7898;48.658;9.068;2023-08-12T05:14:08;11.20;;;9.77;;
15595;SDS011;7898;48.658;9.068;2023-08-12T05:16:35;11.32;;;8.52;;
15595;SDS011;7898;48.658;9.068;2023-08-12T05:19:02;10.73;;;9.57;;
15595;SDS011;7898;48.658;9.068;2023-08-12T05:21:29;10.10;;;9.10;;
15595;SDS011;7898;48.658;9.068;2023-08-12T05:23:57;9.80;;;8.80;;
15595;SDS011;7898;48.658;9.068;2023-08-12T05:26:24;10.35;;;8.82;;
15595;SDS011;7898;48.658;9.068;2023-08-12T05:28:51;9.80;;;8.80;;
15595;SDS011;7898;48.658;9.068;2023-08-12T05:31:18;10.43;;;8.73;;
15595;SDS011;7898;48.658;9.068;2023-08-12T05:33:45;10.55;;;8.52;;
15595;SDS011;7898;48.658;9.068;2023-08-12T05:36:11;9.38;;;8.00;;
15595;SDS011;7898;48.658;9.068;2023-08-12T05:38:38;11.32;;;8.73;;
15595;SDS011;7898;48.658;9.068;2023-08-12T05:41:06;9.45;;;8.40;;
15595;SDS011;7898;48.658;9.068;2023-08-12T05:43:33;10.35;;;8.52;;
15595;SDS011;7898;48.658;9.068;2023-08-12T05:46:00;9.82;;;8.63;;
15595;SDS011;7898;48.658;9.068;2023-08-12T05:48:27;9.55;;;8.60;;
15595;SDS011;7898;48.658;9.068;2023-08-12T05:50:54;9.60;;;8.70;;
15595;SDS011;7898;48.658;9.068;2023-08-12T05:53:21;13.65;;;9.18;;
15595;SDS011;7898;48.658;9.068;2023-08-12T05:55:48;9.45;;;8.40;;
15595;SDS011;7898;48.658;9.068;2023-08-12T05:58:16;9.07;;;7.97;;
15595;SDS011;7898;48.658;9.068;2023-08-12T06:00:43;10.07;;;8.40;;
15595;SDS011;7898;48.658;9.068;2023-08-12T06:03:11;10.52;;;8.32;;
15595;SDS011;7898;48.658;9.068;2023-08-12T06:05:37;10.13;;;9.00;;
15595;SDS011;7898;48.658;9.068;2023-08-12T06:08:06;12.90;;;9.15;;
15595;SDS011;7898;48.658;9.068;2023-08-12T06:10:33;9.25;;;8.05;;
15595;SDS011;7898;48.658;9.068;2023-08-12T06:13:00;11.65;;;8.88;;
15595;SDS011;7898;48.658;9.068;2023-08-12T06:15:28;10.00;;;8.93;;
15595;SDS011;7898;48.658;9.068;2023-08-12T06:17:55;9.43;;;8.48;;
15595;SDS011;7898;48.658;9.068;2023-08-12T06:20:22;9.90;;;8.93;;
15595;SDS011;7898;48.658;9.068;2023-08-12T06:22:49;9.10;;;8.20;;
15595;SDS011;7898;48.658;9.068;2023-08-12T06:25:16;9.45;;;8.10;;
15595;SDS011;7898;48.658;9.068;2023-08-12T06:27:43;9.68;;;8.02;;
15595;SDS011;7898;48.658;9.068;2023-08-12T06:30:11;12.38;;;8.30;;
15595;SDS011;7898;48.658;9.068;2023-08-12T06:32:40;12.23;;;7.90;;
15595;SDS011;7898;48.658;9.068;2023-08-12T06:35:07;9.30;;;6.80;;
15595;SDS011;7898;48.658;9.068;2023-08-12T06:37:34;10.70;;;7.63;;
15595;SDS011;7898;48.658;9.068;2023-08-12T06:40:01;9.18;;;8.27;;
15595;SDS011;7898;48.658;9.068;2023-08-12T06:42:29;8.52;;;6.90;;
15595;SDS011;7898;48.658;9.068;2023-08-12T06:44:56;7.43;;;6.60;;
15595;SDS011;7898;48.658;9.068;2023-08-12T06:47:24;7.60;;;6.90;;
15595;SDS011;7898;48.658;9.068;2023-08-12T06:49:53;7.10;;;6.35;;
15595;SDS011;7898;48.658;9.068;2023-08-12T06:52:20;7.25;;;6.55;;
15595;SDS011;7898;48.658;9.068;2023-08-12T06:54:47;7.18;;;6.22;;
15595;SDS011;7898;48.658;9.068;2023-08-12T06:57:13;6.88;;;6.20;;
15595;SDS011;7898;48.658;9.068;2023-08-12T06:59:40;7.82;;;6.18;;
15595;SDS011;7898;48.658;9.068;2023-08-12T07:02:07;7.10;;;6.50;;
15595;SDS011;7898;48.658;9.068;2023-08-12T07:04:34;7.43;;;6.72;;
15595;SDS011;7898;48.658;9.068;2023-08-12T07:07:02;6.97;;;6.38;;
15595;SDS011;7898;48.658;9.068;2023-08-12T07:09:29;7.03;;;6.38;;
15595;SDS011;7898;48.658;9.068;2023-08-12T07:11:56;6.68;;;5.55;;
15595;SDS011;7898;48.658;9.068;2023-08-12T07:14:23;7.45;;;6.18;;
15595;SDS011;7898;48.658;9.068;2023-08-12T07:16:50;6.80;;;5.57;;
15595;SDS011;7898;48.658;9.068;2023-08-12T07:19:17;6.88;;;6.22;;
15595;SDS011;7898;48.658;9.068;2023-08-12T07:21:44;6.07;;;5.47;;
15595;SDS011;7898;48.658;9.068;2023-08-12T07:24:12;8.13;;;5.55;;
15595;SDS011;7898;48.658;9.068;2023-08-12T07:26:39;6.05;;;5.45;;
15595;SDS011;7898;48.658;9.068;2023-08-12T07:29:06;6.78;;;6.07;;
15595;SDS011;7898;48.658;9.068;2023-08-12T07:31:33;6.50;;;5.88;;
15595;SDS011;7898;48.658;9.068;2023-08-12T07:34:00;6.88;;;6.13;;
15595;SDS011;7898;48.658;9.068;2023-08-12T07:36:26;6.45;;;5.55;;
15595;SDS011;7898;48.658;9.068;2023-08-12T07:38:53;5.68;;;5.15;;
15595;SDS011;7898;48.658;9.068;2023-08-12T07:41:22;7.78;;;5.63;;
15595;SDS011;7898;48.658;9.068;2023-08-12T07:43:52;6.15;;;5.20;;
15595;SDS011;7898;48.658;9.068;2023-08-12T07:46:19;6.47;;;5.80;;
15595;SDS011;7898;48.658;9.068;2023-08-12T07:48:46;5.80;;;5.30;;
15595;SDS011;7898;48.658;9.068;2023-08-12T07:51:12;6.22;;;5.60;;
15595;SDS011;7898;48.658;9.068;2023-08-12T07:53:39;5.90;;;5.28;;
15595;SDS011;7898;48.658;9.068;2023-08-12T07:56:06;5.60;;;5.10;;
15595;SDS011;7898;48.658;9.068;2023-08-12T07:58:35;4.70;;;4.30;;
15595;SDS011;7898;48.658;9.068;2023-08-12T08:01:01;8.05;;;4.88;;
15595;SDS011;7898;48.658;9.068;2023-08-12T08:03:29;5.00;;;4.60;;
15595;SDS011;7898;48.658;9.068;2023-08-12T08:05:56;5.10;;;4.60;;
15595;SDS011;7898;48.658;9.068;2023-08-12T08:08:23;5.60;;;4.28;;
15595;SDS011;7898;48.658;9.068;2023-08-12T08:10:50;5.85;;;3.60;;
15595;SDS011;7898;48.658;9.068;2023-08-12T08:13:17;4.20;;;3.80;;
15595;SDS011;7898;48.658;9.068;2023-08-12T08:15:46;4.53;;;4.13;;
15595;SDS011;7898;48.658;9.068;2023-08-12T08:18:13;4.05;;;3.60;;
15595;SDS011;7898;48.658;9.068;2023-08-12T08:20:41;4.60;;;3.80;;
15595;SDS011;7898;48.658;9.068;2023-08-12T08:23:08;5.55;;;3.65;;
15595;SDS011;7898;48.658;9.068;2023-08-12T08:25:35;5.68;;;3.70;;
15595;SDS011;7898;48.658;9.068;2023-08-12T08:28:02;5.30;;;4.32;;
15595;SDS011;7898;48.658;9.068;2023-08-12T08:30:29;3.88;;;3.47;;
15595;SDS011;7898;48.658;9.068;2023-08-12T08:32:57;5.18;;;4.10;;
15595;SDS011;7898;48.658;9.068;2023-08-12T08:35:24;3.85;;;3.45;;
15595;SDS011;7898;48.658;9.068;2023-08-12T08:37:51;4.22;;;3.80;;
15595;SDS011;7898;48.658;9.068;2023-08-12T08:40:19;4.03;;;3.70;;
15595;SDS011;7898;48.658;9.068;2023-08-12T08:42:46;4.18;;;3.35;;
15595;SDS011;7898;48.658;9.068;2023-08-12T08:45:14;4.28;;;3.53;;
15595;SDS011;7898;48.658;9.068;2023-08-12T08:47:43;3.47;;;3.17;;
15595;SDS011;7898;48.658;9.068;2023-08-12T08:50:14;4.43;;;3.78;;
15595;SDS011;7898;48.658;9.068;2023-08-12T08:52:41;5.60;;;3.97;;
15595;SDS011;7898;48.658;9.068;2023-08-12T08:55:09;4.38;;;3.80;;
15595;SDS011;7898;48.658;9.068;2023-08-12T08:57:36;4.57;;;3.60;;
15595;SDS011;7898;48.658;9.068;2023-08-12T09:00:04;3.90;;;3.53;;
15595;SDS011;7898;48.658;9.068;2023-08-12T09:02:32;4.95;;;3.90;;
15595;SDS011;7898;48.658;9.068;2023-08-12T09:05:00;4.35;;;3.80;;
15595;SDS011;7898;48.658;9.068;2023-08-12T09:07:29;4.88;;;3.53;;
15595;SDS011;7898;48.658;9.068;2023-08-12T09:09:57;3.58;;;3.28;;
15595;SDS011;7898;48.658;9.068;2023-08-12T09:12:26;4.30;;;3.63;;
15595;SDS011;7898;48.658;9.068;2023-08-12T09:14:54;5.30;;;3.35;;
15595;SDS011;7898;48.658;9.068;2023-08-12T09:17:21;4.88;;;3.88;;
15595;SDS011;7898;48.658;9.068;2023-08-12T09:19:48;5.20;;;3.38;;
15595;SDS011;7898;48.658;9.068;2023-08-12T09:22:17;3.97;;;3.22;;
15595;SDS011;7898;48.658;9.068;2023-08-12T09:24:45;4.25;;;3.85;;
15595;SDS011;7898;48.658;9.068;2023-08-12T09:27:12;5.75;;;3.72;;
15595;SDS011;7898;48.658;9.068;2023-08-12T09:29:44;5.57;;;3.40;;
15595;SDS011;7898;48.658;9.068;2023-08-12T09:32:11;3.83;;;3.05;;
15595;SDS011;7898;48.658;9.068;2023-08-12T09:34:45;3.38;;;3.03;;
15595;SDS011;7898;48.658;9.068;2023-08-12T09:37:13;4.57;;;3.47;;
15595;SDS011;7898;48.658;9.068;2023-08-12T09:39:41;3.33;;;3.03;;
15595;SDS011;7898;48.658;9.068;2023-08-12T09:42:09;5.28;;;3.90;;
15595;SDS011;7898;48.658;9.068;2023-08-12T09:44:37;5.60;;;3.45;;
15595;SDS011;7898;48.658;9.068;2023-08-12T09:47:05;5.35;;;3.33;;
15595;SDS011;7898;48.658;9.068;2023-08-12T09:49:33;4.60;;;4.07;;
15595;SDS011;7898;48.658;9.068;2023-08-12T09:52:00;3.80;;;3.50;;
15595;SDS011;7898;48.658;9.068;2023-08-12T09:54:28;4.15;;;3.58;;
15595;SDS011;7898;48.658;9.068;2023-08-12T09:56:58;4.22;;;3.83;;
15595;SDS011;7898;48.658;9.068;2023-08-12T09:59:29;4.30;;;3.75;;
15595;SDS011;7898;48.658;9.068;2023-08-12T10:01:57;4.63;;;3.78;;
15595;SDS011;7898;48.658;9.068;2023-08-12T10:04:26;5.00;;;3.95;;
15595;SDS011;7898;48.658;9.068;2023-08-12T10:06:55;4.60;;;4.10;;
15595;SDS011;7898;48.658;9.068;2023-08-12T10:09:22;4.40;;;4.00;;
15595;SDS011;7898;48.658;9.068;2023-08-12T10:11:49;4.20;;;3.80;;
15595;SDS011;7898;48.658;9.068;2023-08-12T10:14:18;4.45;;;3.90;;
15595;SDS011;7898;48.658;9.068;2023-08-12T10:16:48;4.60;;;3.85;;
15595;SDS011;7898;48.658;9.068;2023-08-12T10:19:16;3.90;;;3.58;;
15595;SDS011;7898;48.658;9.068;2023-08-12T10:21:43;5.65;;;4.28;;
15595;SDS011;7898;48.658;9.068;2023-08-12T10:24:11;5.55;;;4.40;;
15595;SDS011;7898;48.658;9.068;2023-08-12T10:26:41;5.65;;;3.78;;
15595;SDS011;7898;48.658;9.068;2023-08-12T10:29:09;4.93;;;4.53;;
15595;SDS011;7898;48.658;9.068;2023-08-12T10:31:37;5.97;;;4.28;;
15595;SDS011;7898;48.658;9.068;2023-08-12T10:34:06;5.03;;;4.25;;
15595;SDS011;7898;48.658;9.068;2023-08-12T10:36:33;5.28;;;4.78;;
15595;SDS011;7898;48.658;9.068;2023-08-12T10:39:00;4.82;;;4.38;;
15595;SDS011;7898;48.658;9.068;2023-08-12T10:41:29;5.18;;;4.55;;
15595;SDS011;7898;48.658;9.068;2023-08-12T10:44:04;6.95;;;4.43;;
15595;SDS011;7898;48.658;9.068;2023-08-12T10:46:32;5.22;;;4.72;;
15595;SDS011;7898;48.658;9.068;2023-08-12T10:49:02;4.68;;;4.28;;
15595;SDS011;7898;48.658;9.068;2023-08-12T10:54:23;5.00;;;4.20;;
15595;SDS011;7898;48.658;9.068;2023-08-12T10:57:07;5.32;;;4.65;;
15595;SDS011;7898;48.658;9.068;2023-08-12T10:59:52;5.57;;;4.28;;
15595;SDS011;7898;48.658;9.068;2023-08-12T11:02:21;5.55;;;4.22;;
15595;SDS011;7898;48.658;9.068;2023-08-12T11:04:52;4.78;;;3.95;;
15595;SDS011;7898;48.658;9.068;2023-08-12T11:07:22;4.78;;;4.30;;
15595;SDS011;7898;48.658;9.068;2023-08-12T11:09:54;6.78;;;4.38;;
15595;SDS011;7898;48.658;9.068;2023-08-12T11:12:29;4.90;;;3.83;;
15595;SDS011;7898;48.658;9.068;2023-08-12T11:14:57;6.20;;;4.32;;
15595;SDS011;7898;48.658;9.068;2023-08-12T11:17:29;4.78;;;4.10;;
15595;SDS011;7898;48.658;9.068;2023-08-12T11:20:00;4.70;;;4.15;;
15595;SDS011;7898;48.658;9.068;2023-08-12T11:22:31;4.47;;;3.90;;
15595;SDS011;7898;48.658;9.068;2023-08-12T11:25:01;4.75;;;3.72;;
15595;SDS011;7898;48.658;9.068;2023-08-12T11:27:34;4.80;;;4.40;;
15595;SDS011;7898;48.658;9.068;2023-08-12T11:30:06;4.85;;;4.03;;
15595;SDS011;7898;48.658;9.068;2023-08-12T11:32:35;5.10;;;4.38;;
15595;SDS011;7898;48.658;9.068;2023-08-12T11:35:03;6.10;;;3.70;;
15595;SDS011;7898;48.658;9.068;2023-08-12T11:37:33;4.18;;;3.20;;
15595;SDS011;7898;48.658;9.068;2023-08-12T11:40:01;7.00;;;3.45;;
15595;SDS011;7898;48.658;9.068;2023-08-12T11:42:29;6.10;;;3.70;;
15595;SDS011;7898;48.658;9.068;2023-08-12T11:44:56;4.72;;;3.28;;
15595;SDS011;7898;48.658;9.068;2023-08-12T11:47:23;6.38;;;3.90;;
15595;SDS011;7898;48.658;9.068;2023-08-12T11:49:51;4.53;;;3.00;;
15595;SDS011;7898;48.658;9.068;2023-08-12T11:52:18;6.05;;;3.10;;
15595;SDS011;7898;48.658;9.068;2023-08-12T11:54:47;4.70;;;3.65;;
15595;SDS011;7898;48.658;9.068;2023-08-12T11:57:15;5.10;;;2.83;;
15595;SDS011;7898;48.658;9.068;2023-08-12T11:59:42;6.72;;;3.95;;
15595;SDS011;7898;48.658;9.068;2023-08-12T12:02:10;5.70;;;3.75;;
15595;SDS011;7898;48.658;9.068;2023-08-12T12:04:37;5.18;;;3.80;;
15595;SDS011;7898;48.658;9.068;2023-08-12T12:07:16;6.25;;;3.85;;
15595;SDS011;7898;48.658;9.068;2023-08-12T12:09:44;4.90;;;3.85;;
15595;SDS011;7898;48.658;9.068;2023-08-12T12:12:12;8.43;;;3.70;;
15595;SDS011;7898;48.658;9.068;2023-08-12T12:14:39;6.55;;;3.47;;
15595;SDS011;7898;48.658;9.068;2023-08-12T12:17:07;4.53;;;3.40;;
15595;SDS011;7898;48.658;9.068;2023-08-12T12:19:35;6.13;;;3.47;;
15595;SDS011;7898;48.658;9.068;2023-08-12T12:22:02;10.52;;;3.88;;
15595;SDS011;7898;48.658;9.068;2023-08-12T12:24:30;4.88;;;3.70;;
15595;SDS011;7898;48.658;9.068;2023-08-12T12:27:10;4.65;;;3.50;;
15595;SDS011;7898;48.658;9.068;2023-08-12T12:29:39;8.27;;;4.25;;
15595;SDS011;7898;48.658;9.068;2023-08-12T12:32:09;8.55;;;4.47;;
15595;SDS011;7898;48.658;9.068;2023-08-12T12:34:37;8.32;;;4.55;;
15595;SDS011;7898;48.658;9.068;2023-08-12T12:37:04;14.98;;;6.50;;
15595;SDS011;7898;48.658;9.068;2023-08-12T12:39:31;9.38;;;4.50;;
15595;SDS011;7898;48.658;9.068;2023-08-12T12:41:58;8.98;;;4.78;;
15595;SDS011;7898;48.658;9.068;2023-08-12T12:44:27;7.03;;;4.43;;
15595;SDS011;7898;48.658;9.068;2023-08-12T12:46:53;10.60;;;4.68;;
15595;SDS011;7898;48.658;9.068;2023-08-12T12:49:20;8.75;;;4.88;;
15595;SDS011;7898;48.658;9.068;2023-08-12T12:51:47;7.45;;;5.45;;
15595;SDS011;7898;48.658;9.068;2023-08-12T12:54:14;9.23;;;5.32;;
15595;SDS011;7898;48.658;9.068;2023-08-12T12:56:41;10.57;;;5.95;;
15595;SDS011;7898;48.658;9.068;2023-08-12T12:59:08;7.57;;;5.30;;
15595;SDS011;7898;48.658;9.068;2023-08-12T13:01:37;6.45;;;4.90;;
15595;SDS011;7898;48.658;9.068;2023-08-12T13:04:04;9.30;;;4.97;;
15595;SDS011;7898;48.658;9.068;2023-08-12T13:06:33;6.75;;;4.80;;
15595;SDS011;7898;48.658;9.068;2023-08-12T13:09:00;7.57;;;5.50;;
15595;SDS011;7898;48.658;9.068;2023-08-12T13:11:28;8.80;;;4.80;;
15595;SDS011;7898;48.658;9.068;2023-08-12T13:13:55;12.38;;;6.30;;
15595;SDS011;7898;48.658;9.068;2023-08-12T13:16:22;8.98;;;5.15;;
15595;SDS011;7898;48.658;9.068;2023-08-12T13:18:50;7.88;;;5.32;;
15595;SDS011;7898;48.658;9.068;2023-08-12T13:21:17;8.15;;;5.00;;
15595;SDS011;7898;48.658;9.068;2023-08-12T13:23:44;9.23;;;4.97;;
15595;SDS011;7898;48.658;9.068;2023-08-12T13:26:10;8.52;;;4.55;;
15595;SDS011;7898;48.658;9.068;2023-08-12T13:28:37;5.05;;;4.50;;
15595;SDS011;7898;48.658;9.068;2023-08-12T13:31:04;6.75;;;4.25;;
15595;SDS011;7898;48.658;9.068;2023-08-12T13:33:31;6.10;;;4.13;;
15595;SDS011;7898;48.658;9.068;2023-08-12T13:35:59;5.68;;;4.40;;
15595;SDS011;7898;48.658;9.068;2023-08-12T13:38:26;10.50;;;4.45;;
15595;SDS011;7898;48.658;9.068;2023-08-12T13:40:53;5.05;;;3.95;;
15595;SDS011;7898;48.658;9.068;2023-08-12T13:43:20;9.07;;;4.43;;
15595;SDS011;7898;48.658;9.068;2023-08-12T13:45:47;5.82;;;3.78;;
15595;SDS011;7898;48.658;9.068;2023-08-12T13:48:14;3.95;;;3.33;;
15595;SDS011;7898;48.658;9.068;2023-08-12T13:50:41;5.43;;;3.40;;
15595;SDS011;7898;48.658;9.068;2023-08-12T13:53:10;5.93;;;3.28;;
15595;SDS011;7898;48.658;9.068;2023-08-12T13:55:36;4.22;;;2.95;;
15595;SDS011;7898;48.658;9.068;2023-08-12T13:58:03;4.47;;;3.00;;
15595;SDS011;7898;48.658;9.068;2023-08-12T14:00:30;5.32;;;3.28;;
15595;SDS011;7898;48.658;9.068;2023-08-12T14:02:57;3.70;;;3.35;;
15595;SDS011;7898;48.658;9.068;2023-08-12T14:05:24;4.47;;;3.38;;
15595;SDS011;7898;48.658;9.068;2023-08-12T14:07:51;5.38;;;2.75;;
15595;SDS011;7898;48.658;9.068;2023-08-12T14:10:19;3.47;;;2.63;;
15595;SDS011;7898;48.658;9.068;2023-08-12T14:12:46;3.85;;;2.67;;
15595;SDS011;7898;48.658;9.068;2023-08-12T14:15:14;4.13;;;2.50;;
15595;SDS011;7898;48.658;9.068;2023-08-12T14:17:40;3.20;;;2.60;;
15595;SDS011;7898;48.658;9.068;2023-08-12T14:20:07;3.65;;;2.30;;
15595;SDS011;7898;48.658;9.068;2023-08-12T14:22:35;2.92;;;2.10;;
15595;SDS011;7898;48.658;9.068;2023-08-12T14:25:02;2.47;;;2.15;;
15595;SDS011;7898;48.658;9.068;2023-08-12T14:27:31;3.33;;;2.25;;
15595;SDS011;7898;48.658;9.068;2023-08-12T14:29:58;3.08;;;2.30;;
15595;SDS011;7898;48.658;9.068;2023-08-12T14:32:24;2.47;;;1.95;;
15595;SDS011;7898;48.658;9.068;2023-08-12T14:34:51;2.45;;;1.85;;
15595;SDS011;7898;48.658;9.068;2023-08-12T14:37:18;2.60;;;2.38;;
15595;SDS011;7898;48.658;9.068;2023-08-12T14:39:45;3.53;;;2.65;;
15595;SDS011;7898;48.658;9.068;2023-08-12T14:42:12;3.70;;;1.92;;
15595;SDS011;7898;48.658;9.068;2023-08-12T14:44:40;4.90;;;2.50;;
15595;SDS011;7898;48.658;9.068;2023-08-12T14:47:07;2.00;;;1.70;;
15595;SDS011;7898;48.658;9.068;2023-08-12T14:49:34;2.42;;;1.95;;
15595;SDS011;7898;48.658;9.068;2023-08-12T14:52:01;3.63;;;2.28;;
15595;SDS011;7898;48.658;9.068;2023-08-12T14:54:28;2.40;;;1.90;;
15595;SDS011;7898;48.658;9.068;2023-08-12T14:56:55;3.05;;;1.83;;
15595;SDS011;7898;48.658;9.068;2023-08-12T14:59:22;2.47;;;2.28;;
15595;SDS011;7898;48.658;9.068;2023-08-12T15:01:50;3.88;;;2.55;;
15595;SDS011;7898;48.658;9.068;2023-08-12T15:04:17;5.13;;;3.13;;